sensor_id;sensor_type;location;lat;lon;timestamp;temperature;humidity
15105;DHT22;7653;48.994;9.212;2022-11-15T00:00:50;9.10;75.40
15105;DHT22;7653;48.994;9.212;2022-11-15T00:10:00;9.40;73.00
15105;DHT22;7653;48.994;9.212;2022-11-15T11:10:56;13.40;43.70
15105;DHT22;7653;48.994;9.212;2022-11-15T11:13:23;13.60;43.90
15105;DHT22;7653;48.994;9.212;2022-11-15T11:18:56;13.60;43.90
15105;DHT22;7653;48.994;9.212;2022-11-15T11:24:44;13.70;44.00
15105;DHT22;7653;48.994;9.212;2022-11-15T11:32:59;13.50;43.80
15105;DHT22;7653;48.994;9.212;2022-11-15T11:41:18;13.60;43.90
15105;DHT22;7653;48.994;9.212;2022-11-15T11:52:24;14.30;46.30
15105;DHT22;7653;48.994;9.212;2022-11-15T11:55:19;14.20;44.50
15105;DHT22;7653;48.994;9.212;2022-11-15T11:57:56;14.00;47.50
15105;DHT22;7653;48.994;9.212;2022-11-15T12:00:26;14.20;47.60
15105;DHT22;7653;48.994;9.212;2022-11-15T12:05:57;14.40;46.50
15105;DHT22;7653;48.994;9.212;2022-11-15T12:11:22;14.40;46.90
15105;DHT22;7653;48.994;9.212;2022-11-15T12:13:53;14.50;48.00
15105;DHT22;7653;48.994;9.212;2022-11-15T12:16:26;14.40;48.80
15105;DHT22;7653;48.994;9.212;2022-11-15T12:18:54;14.50;46.80
15105;DHT22;7653;48.994;9.212;2022-11-15T12:24:54;14.70;47.80
15105;DHT22;7653;48.994;9.212;2022-11-15T12:32:03;14.60;49.30
15105;DHT22;7653;48.994;9.212;2022-11-15T12:34:45;14.70;48.80
15105;DHT22;7653;48.994;9.212;2022-11-15T12:40:17;14.50;47.70
15105;DHT22;7653;48.994;9.212;2022-11-15T12:45:38;14.30;49.40
15105;DHT22;7653;48.994;9.212;2022-11-15T12:58:48;14.50;49.60
15105;DHT22;7653;48.994;9.212;2022-11-15T13:06:55;14.60;49.40
15105;DHT22;7653;48.994;9.212;2022-11-15T13:19:58;14.30;50.00
15105;DHT22;7653;48.994;9.212;2022-11-15T13:22:25;14.40;50.60
15105;DHT22;7653;48.994;9.212;2022-11-15T13:25:18;14.30;53.20
15105;DHT22;7653;48.994;9.212;2022-11-15T13:27:49;14.40;53.10
15105;DHT22;7653;48.994;9.212;2022-11-15T13:30:26;14.40;51.70
15105;DHT22;7653;48.994;9.212;2022-11-15T13:32:52;14.40;52.70
15105;DHT22;7653;48.994;9.212;2022-11-15T13:35:23;14.40;54.30
15105;DHT22;7653;48.994;9.212;2022-11-15T13:37:52;14.40;54.40
15105;DHT22;7653;48.994;9.212;2022-11-15T13:40:50;14.50;53.40
15105;DHT22;7653;48.994;9.212;2022-11-15T13:46:09;14.70;50.70
15105;DHT22;7653;48.994;9.212;2022-11-15T13:48:36;14.80;50.00
15105;DHT22;7653;48.994;9.212;2022-11-15T13:51:06;14.70;49.70
15105;DHT22;7653;48.994;9.212;2022-11-15T13:53:34;14.60;50.00
15105;DHT22;7653;48.994;9.212;2022-11-15T13:56:02;14.70;50.00
15105;DHT22;7653;48.994;9.212;2022-11-15T13:58:30;14.60;49.70
15105;DHT22;7653;48.994;9.212;2022-11-15T14:01:04;14.50;49.30
15105;DHT22;7653;48.994;9.212;2022-11-15T14:03:32;14.50;49.90
15105;DHT22;7653;48.994;9.212;2022-11-15T14:08:33;14.60;49.20
15105;DHT22;7653;48.994;9.212;2022-11-15T14:11:29;14.70;47.40
15105;DHT22;7653;48.994;9.212;2022-11-15T14:14:11;14.70;46.80
15105;DHT22;7653;48.994;9.212;2022-11-15T14:16:50;14.80;46.40
15105;DHT22;7653;48.994;9.212;2022-11-15T14:22:16;14.70;45.40
15105;DHT22;7653;48.994;9.212;2022-11-15T14:24:47;14.60;45.30
15105;DHT22;7653;48.994;9.212;2022-11-15T14:27:28;14.70;45.90
15105;DHT22;7653;48.994;9.212;2022-11-15T14:29:54;14.60;46.20
15105;DHT22;7653;48.994;9.212;2022-11-15T14:32:28;14.40;46.40
15105;DHT22;7653;48.994;9.212;2022-11-15T14:39:51;14.50;45.50
15105;DHT22;7653;48.994;9.212;2022-11-15T14:42:17;14.50;44.70
15105;DHT22;7653;48.994;9.212;2022-11-15T14:44:46;14.60;44.80
15105;DHT22;7653;48.994;9.212;2022-11-15T14:47:12;14.50;44.80
15105;DHT22;7653;48.994;9.212;2022-11-15T14:49:39;14.30;45.40
15105;DHT22;7653;48.994;9.212;2022-11-15T14:54:54;14.40;45.20
15105;DHT22;7653;48.994;9.212;2022-11-15T15:03:00;14.50;46.50
15105;DHT22;7653;48.994;9.212;2022-11-15T15:05:47;14.40;46.90
15105;DHT22;7653;48.994;9.212;2022-11-15T15:08:12;14.30;47.10
15105;DHT22;7653;48.994;9.212;2022-11-15T15:10:43;14.20;48.20
15105;DHT22;7653;48.994;9.212;2022-11-15T15:13:21;14.10;49.40
15105;DHT22;7653;48.994;9.212;2022-11-15T15:15:48;14.10;50.30
15105;DHT22;7653;48.994;9.212;2022-11-15T15:18:14;14.10;50.00
15105;DHT22;7653;48.994;9.212;2022-11-15T15:20:41;14.00;50.20
15105;DHT22;7653;48.994;9.212;2022-11-15T15:23:31;13.80;51.70
15105;DHT22;7653;48.994;9.212;2022-11-15T15:26:01;13.70;53.80
15105;DHT22;7653;48.994;9.212;2022-11-15T15:28:27;13.70;52.80
15105;DHT22;7653;48.994;9.212;2022-11-15T15:30:55;13.70;51.50
15105;DHT22;7653;48.994;9.212;2022-11-15T15:33:30;13.70;51.10
15105;DHT22;7653;48.994;9.212;2022-11-15T15:36:16;13.70;50.80
15105;DHT22;7653;48.994;9.212;2022-11-15T15:38:43;13.80;49.80
15105;DHT22;7653;48.994;9.212;2022-11-15T15:41:14;13.70;52.60
15105;DHT22;7653;48.994;9.212;2022-11-15T15:43:40;13.50;54.10
15105;DHT22;7653;48.994;9.212;2022-11-15T15:46:14;13.50;53.00
15105;DHT22;7653;48.994;9.212;2022-11-15T15:51:19;13.40;51.70
15105;DHT22;7653;48.994;9.212;2022-11-15T15:53:45;13.40;51.60
15105;DHT22;7653;48.994;9.212;2022-11-15T15:56:10;13.40;50.70
15105;DHT22;7653;48.994;9.212;2022-11-15T15:58:36;13.40;50.10
15105;DHT22;7653;48.994;9.212;2022-11-15T16:01:05;13.30;49.40
15105;DHT22;7653;48.994;9.212;2022-11-15T16:03:33;13.30;49.20
15105;DHT22;7653;48.994;9.212;2022-11-15T16:05:58;13.30;49.00
15105;DHT22;7653;48.994;9.212;2022-11-15T16:08:25;13.20;49.40
15105;DHT22;7653;48.994;9.212;2022-11-15T16:10:55;13.20;49.50
15105;DHT22;7653;48.994;9.212;2022-11-15T16:13:23;13.30;49.50
15105;DHT22;7653;48.994;9.212;2022-11-15T16:15:52;13.30;49.50
15105;DHT22;7653;48.994;9.212;2022-11-15T16:18:18;13.30;49.60
15105;DHT22;7653;48.994;9.212;2022-11-15T16:20:48;13.30;49.90
15105;DHT22;7653;48.994;9.212;2022-11-15T16:23:17;13.30;50.20
15105;DHT22;7653;48.994;9.212;2022-11-15T16:25:55;13.20;50.40
15105;DHT22;7653;48.994;9.212;2022-11-15T16:28:23;13.20;50.40
15105;DHT22;7653;48.994;9.212;2022-11-15T16:30:59;13.20;50.40
15105;DHT22;7653;48.994;9.212;2022-11-15T16:33:25;13.20;50.30
15105;DHT22;7653;48.994;9.212;2022-11-15T16:35:51;13.20;50.40
15105;DHT22;7653;48.994;9.212;2022-11-15T16:38:17;13.20;50.50
15105;DHT22;7653;48.994;9.212;2022-11-15T16:40:43;13.20;50.50
15105;DHT22;7653;48.994;9.212;2022-11-15T16:43:09;13.10;50.40
15105;DHT22;7653;48.994;9.212;2022-11-15T16:45:35;13.20;50.40
15105;DHT22;7653;48.994;9.212;2022-11-15T16:48:01;13.10;50.60
15105;DHT22;7653;48.994;9.212;2022-11-15T16:50:29;13.10;50.40
15105;DHT22;7653;48.994;9.212;2022-11-15T16:52:57;13.00;51.20
15105;DHT22;7653;48.994;9.212;2022-11-15T16:55:26;12.90;51.40
15105;DHT22;7653;48.994;9.212;2022-11-15T16:57:54;12.90;52.00
15105;DHT22;7653;48.994;9.212;2022-11-15T17:00:22;13.00;52.90
15105;DHT22;7653;48.994;9.212;2022-11-15T17:02:50;12.90;53.00
15105;DHT22;7653;48.994;9.212;2022-11-15T17:05:17;12.90;53.10
15105;DHT22;7653;48.994;9.212;2022-11-15T17:07:48;12.70;54.10
15105;DHT22;7653;48.994;9.212;2022-11-15T17:10:22;12.70;54.40
15105;DHT22;7653;48.994;9.212;2022-11-15T17:12:48;12.60;54.20
15105;DHT22;7653;48.994;9.212;2022-11-15T17:15:17;12.60;53.50
15105;DHT22;7653;48.994;9.212;2022-11-15T17:17:46;12.60;52.80
15105;DHT22;7653;48.994;9.212;2022-11-15T17:20:17;12.70;52.80
15105;DHT22;7653;48.994;9.212;2022-11-15T17:22:43;12.60;52.70
15105;DHT22;7653;48.994;9.212;2022-11-15T17:25:09;12.60;53.10
15105;DHT22;7653;48.994;9.212;2022-11-15T17:27:35;12.50;53.60
15105;DHT22;7653;48.994;9.212;2022-11-15T17:30:01;12.60;53.90
15105;DHT22;7653;48.994;9.212;2022-11-15T17:32:27;12.60;54.10
15105;DHT22;7653;48.994;9.212;2022-11-15T17:34:52;12.60;53.20
15105;DHT22;7653;48.994;9.212;2022-11-15T17:37:18;12.50;53.90
15105;DHT22;7653;48.994;9.212;2022-11-15T17:39:44;12.40;54.80
15105;DHT22;7653;48.994;9.212;2022-11-15T17:42:10;12.40;55.00
15105;DHT22;7653;48.994;9.212;2022-11-15T17:44:35;12.20;57.80
15105;DHT22;7653;48.994;9.212;2022-11-15T17:47:01;12.10;59.40
15105;DHT22;7653;48.994;9.212;2022-11-15T17:49:27;12.00;60.00
15105;DHT22;7653;48.994;9.212;2022-11-15T17:51:52;12.00;60.90
15105;DHT22;7653;48.994;9.212;2022-11-15T17:54:18;11.90;60.00
15105;DHT22;7653;48.994;9.212;2022-11-15T17:56:44;11.90;60.40
15105;DHT22;7653;48.994;9.212;2022-11-15T17:59:10;11.90;59.90
15105;DHT22;7653;48.994;9.212;2022-11-15T18:01:37;11.90;58.80
15105;DHT22;7653;48.994;9.212;2022-11-15T18:04:06;12.10;58.30
15105;DHT22;7653;48.994;9.212;2022-11-15T18:06:33;12.10;56.80
15105;DHT22;7653;48.994;9.212;2022-11-15T18:09:00;12.10;57.10
15105;DHT22;7653;48.994;9.212;2022-11-15T18:11:28;12.20;56.00
15105;DHT22;7653;48.994;9.212;2022-11-15T18:13:57;12.20;55.70
15105;DHT22;7653;48.994;9.212;2022-11-15T18:16:24;12.20;54.90
15105;DHT22;7653;48.994;9.212;2022-11-15T18:18:51;12.30;54.80
15105;DHT22;7653;48.994;9.212;2022-11-15T18:21:22;12.30;54.20
15105;DHT22;7653;48.994;9.212;2022-11-15T18:23:51;12.20;54.70
15105;DHT22;7653;48.994;9.212;2022-11-15T18:26:18;12.20;55.50
15105;DHT22;7653;48.994;9.212;2022-11-15T18:28:45;12.20;54.80
15105;DHT22;7653;48.994;9.212;2022-11-15T18:33:39;12.30;53.70
15105;DHT22;7653;48.994;9.212;2022-11-15T18:36:07;12.30;52.90
15105;DHT22;7653;48.994;9.212;2022-11-15T18:38:34;12.30;52.50
15105;DHT22;7653;48.994;9.212;2022-11-15T18:41:17;12.20;53.20
15105;DHT22;7653;48.994;9.212;2022-11-15T18:43:45;12.20;53.60
15105;DHT22;7653;48.994;9.212;2022-11-15T18:46:13;12.30;53.10
15105;DHT22;7653;48.994;9.212;2022-11-15T18:48:41;12.30;52.50
15105;DHT22;7653;48.994;9.212;2022-11-15T18:51:17;12.20;52.60
15105;DHT22;7653;48.994;9.212;2022-11-15T18:53:43;12.20;53.50
15105;DHT22;7653;48.994;9.212;2022-11-15T18:56:17;12.20;54.20
15105;DHT22;7653;48.994;9.212;2022-11-15T18:58:45;12.20;54.30
15105;DHT22;7653;48.994;9.212;2022-11-15T19:01:20;12.20;54.50
15105;DHT22;7653;48.994;9.212;2022-11-15T19:03:49;12.20;54.60
15105;DHT22;7653;48.994;9.212;2022-11-15T19:06:16;12.20;55.00
15105;DHT22;7653;48.994;9.212;2022-11-15T19:08:44;12.10;55.10
15105;DHT22;7653;48.994;9.212;2022-11-15T19:11:22;12.10;55.40
15105;DHT22;7653;48.994;9.212;2022-11-15T19:13:57;12.00;57.20
15105;DHT22;7653;48.994;9.212;2022-11-15T19:16:25;12.10;57.50
15105;DHT22;7653;48.994;9.212;2022-11-15T19:18:55;12.10;57.30
15105;DHT22;7653;48.994;9.212;2022-11-15T19:21:21;12.10;57.10
15105;DHT22;7653;48.994;9.212;2022-11-15T19:23:47;12.10;57.70
15105;DHT22;7653;48.994;9.212;2022-11-15T19:26:14;12.10;58.70
15105;DHT22;7653;48.994;9.212;2022-11-15T19:28:41;12.10;58.50
15105;DHT22;7653;48.994;9.212;2022-11-15T19:33:33;12.10;58.60
15105;DHT22;7653;48.994;9.212;2022-11-15T19:36:06;12.10;59.70
15105;DHT22;7653;48.994;9.212;2022-11-15T19:38:34;12.10;61.50
15105;DHT22;7653;48.994;9.212;2022-11-15T19:41:02;12.10;61.80
15105;DHT22;7653;48.994;9.212;2022-11-15T19:43:28;12.20;61.90
15105;DHT22;7653;48.994;9.212;2022-11-15T19:46:02;12.20;61.90
15105;DHT22;7653;48.994;9.212;2022-11-15T19:48:29;12.20;62.00
15105;DHT22;7653;48.994;9.212;2022-11-15T19:50:59;12.10;63.40
15105;DHT22;7653;48.994;9.212;2022-11-15T19:53:26;12.00;64.40
15105;DHT22;7653;48.994;9.212;2022-11-15T19:55:53;11.80;66.20
15105;DHT22;7653;48.994;9.212;2022-11-15T19:58:19;11.80;67.60
15105;DHT22;7653;48.994;9.212;2022-11-15T20:00:45;11.80;68.90
15105;DHT22;7653;48.994;9.212;2022-11-15T20:03:11;11.70;68.70
15105;DHT22;7653;48.994;9.212;2022-11-15T20:05:37;11.60;68.80
15105;DHT22;7653;48.994;9.212;2022-11-15T20:08:02;11.70;68.80
15105;DHT22;7653;48.994;9.212;2022-11-15T20:10:28;11.70;67.80
15105;DHT22;7653;48.994;9.212;2022-11-15T20:12:54;11.60;69.40
15105;DHT22;7653;48.994;9.212;2022-11-15T20:15:20;11.60;71.00
15105;DHT22;7653;48.994;9.212;2022-11-15T20:17:45;11.60;71.00
15105;DHT22;7653;48.994;9.212;2022-11-15T20:20:11;11.60;69.40
15105;DHT22;7653;48.994;9.212;2022-11-15T20:22:37;11.60;67.80
15105;DHT22;7653;48.994;9.212;2022-11-15T20:25:03;11.60;68.20
15105;DHT22;7653;48.994;9.212;2022-11-15T20:27:29;11.60;68.40
15105;DHT22;7653;48.994;9.212;2022-11-15T20:29:55;11.60;67.50
15105;DHT22;7653;48.994;9.212;2022-11-15T20:32:21;11.70;67.30
15105;DHT22;7653;48.994;9.212;2022-11-15T20:34:50;11.60;66.20
15105;DHT22;7653;48.994;9.212;2022-11-15T20:37:16;11.70;66.80
15105;DHT22;7653;48.994;9.212;2022-11-15T20:39:45;11.70;67.30
15105;DHT22;7653;48.994;9.212;2022-11-15T20:42:12;11.70;66.70
15105;DHT22;7653;48.994;9.212;2022-11-15T20:44:38;11.50;68.10
15105;DHT22;7653;48.994;9.212;2022-11-15T20:47:04;11.50;68.80
15105;DHT22;7653;48.994;9.212;2022-11-15T20:49:31;11.60;69.50
15105;DHT22;7653;48.994;9.212;2022-11-15T20:51:56;11.70;67.50
15105;DHT22;7653;48.994;9.212;2022-11-15T20:54:22;11.80;67.00
15105;DHT22;7653;48.994;9.212;2022-11-15T20:56:47;11.70;67.60
15105;DHT22;7653;48.994;9.212;2022-11-15T20:59:13;11.60;69.60
15105;DHT22;7653;48.994;9.212;2022-11-15T21:01:41;11.70;70.00
15105;DHT22;7653;48.994;9.212;2022-11-15T21:04:07;11.60;69.20
15105;DHT22;7653;48.994;9.212;2022-11-15T21:06:33;11.50;70.90
15105;DHT22;7653;48.994;9.212;2022-11-15T21:08:58;11.40;72.40
15105;DHT22;7653;48.994;9.212;2022-11-15T21:11:42;11.40;74.30
15105;DHT22;7653;48.994;9.212;2022-11-15T21:14:27;11.40;75.00
15105;DHT22;7653;48.994;9.212;2022-11-15T21:16:53;11.50;74.50
15105;DHT22;7653;48.994;9.212;2022-11-15T21:19:19;11.50;74.50
15105;DHT22;7653;48.994;9.212;2022-11-15T21:21:48;11.40;74.50
15105;DHT22;7653;48.994;9.212;2022-11-15T21:24:14;11.40;74.10
15105;DHT22;7653;48.994;9.212;2022-11-15T21:26:40;11.40;73.90
15105;DHT22;7653;48.994;9.212;2022-11-15T21:29:08;11.30;74.20
15105;DHT22;7653;48.994;9.212;2022-11-15T21:31:34;11.30;75.10
15105;DHT22;7653;48.994;9.212;2022-11-15T21:34:00;11.40;75.40
15105;DHT22;7653;48.994;9.212;2022-11-15T21:36:27;11.40;75.00
15105;DHT22;7653;48.994;9.212;2022-11-15T21:38:53;11.40;73.50
15105;DHT22;7653;48.994;9.212;2022-11-15T21:41:18;11.30;74.40
15105;DHT22;7653;48.994;9.212;2022-11-15T21:43:47;11.30;74.20
15105;DHT22;7653;48.994;9.212;2022-11-15T21:46:14;11.40;74.00
15105;DHT22;7653;48.994;9.212;2022-11-15T21:48:41;11.20;73.20
15105;DHT22;7653;48.994;9.212;2022-11-15T21:51:09;11.20;75.30
15105;DHT22;7653;48.994;9.212;2022-11-15T21:53:36;11.10;76.40
15105;DHT22;7653;48.994;9.212;2022-11-15T21:56:02;11.00;77.70
15105;DHT22;7653;48.994;9.212;2022-11-15T21:58:28;11.00;78.30
15105;DHT22;7653;48.994;9.212;2022-11-15T22:00:55;11.10;79.80
15105;DHT22;7653;48.994;9.212;2022-11-15T22:03:40;11.00;79.30
15105;DHT22;7653;48.994;9.212;2022-11-15T22:06:06;11.00;79.30
15105;DHT22;7653;48.994;9.212;2022-11-15T22:08:35;11.00;79.80
15105;DHT22;7653;48.994;9.212;2022-11-15T22:11:01;11.10;79.30
15105;DHT22;7653;48.994;9.212;2022-11-15T22:13:26;11.20;77.20
15105;DHT22;7653;48.994;9.212;2022-11-15T22:15:53;11.00;79.80
15105;DHT22;7653;48.994;9.212;2022-11-15T22:18:21;11.00;80.00
15105;DHT22;7653;48.994;9.212;2022-11-15T22:21:04;11.10;79.90
15105;DHT22;7653;48.994;9.212;2022-11-15T22:23:33;11.10;79.90
15105;DHT22;7653;48.994;9.212;2022-11-15T22:25:59;11.00;79.80
15105;DHT22;7653;48.994;9.212;2022-11-15T22:28:25;11.00;79.90
15105;DHT22;7653;48.994;9.212;2022-11-15T22:30:52;11.00;80.50
15105;DHT22;7653;48.994;9.212;2022-11-15T22:33:21;11.00;81.30
15105;DHT22;7653;48.994;9.212;2022-11-15T22:35:47;11.00;81.00
15105;DHT22;7653;48.994;9.212;2022-11-15T22:38:13;11.10;80.10
15105;DHT22;7653;48.994;9.212;2022-11-15T22:40:39;11.20;80.00
15105;DHT22;7653;48.994;9.212;2022-11-15T22:43:05;11.10;79.90
15105;DHT22;7653;48.994;9.212;2022-11-15T22:45:31;11.10;80.80
15105;DHT22;7653;48.994;9.212;2022-11-15T22:47:57;11.20;81.70
15105;DHT22;7653;48.994;9.212;2022-11-15T22:50:24;11.20;81.40
15105;DHT22;7653;48.994;9.212;2022-11-15T22:52:50;11.20;81.70
15105;DHT22;7653;48.994;9.212;2022-11-15T22:55:16;11.20;81.70
15105;DHT22;7653;48.994;9.212;2022-11-15T22:57:42;11.10;82.10
15105;DHT22;7653;48.994;9.212;2022-11-15T23:00:12;11.10;82.50
15105;DHT22;7653;48.994;9.212;2022-11-15T23:02:38;11.10;82.40
15105;DHT22;7653;48.994;9.212;2022-11-15T23:05:05;11.10;83.40
15105;DHT22;7653;48.994;9.212;2022-11-15T23:07:31;11.10;84.50
15105;DHT22;7653;48.994;9.212;2022-11-15T23:09:58;11.20;83.10
15105;DHT22;7653;48.994;9.212;2022-11-15T23:12:46;11.10;82.70
15105;DHT22;7653;48.994;9.212;2022-11-15T23:15:31;11.10;84.40
15105;DHT22;7653;48.994;9.212;2022-11-15T23:18:16;11.20;83.10
15105;DHT22;7653;48.994;9.212;2022-11-15T23:20:42;11.10;83.10
15105;DHT22;7653;48.994;9.212;2022-11-15T23:23:08;11.10;84.80
15105;DHT22;7653;48.994;9.212;2022-11-15T23:25:34;11.10;85.70
15105;DHT22;7653;48.994;9.212;2022-11-15T23:28:04;11.00;87.40
15105;DHT22;7653;48.994;9.212;2022-11-15T23:30:34;10.90;88.80
15105;DHT22;7653;48.994;9.212;2022-11-15T23:33:19;10.80;90.30
15105;DHT22;7653;48.994;9.212;2022-11-15T23:36:04;10.80;91.30
15105;DHT22;7653;48.994;9.212;2022-11-15T23:38:35;10.90;91.50
15105;DHT22;7653;48.994;9.212;2022-11-15T23:41:03;10.70;91.70
15105;DHT22;7653;48.994;9.212;2022-11-15T23:43:29;10.80;92.50
15105;DHT22;7653;48.994;9.212;2022-11-15T23:45:55;10.70;92.30
15105;DHT22;7653;48.994;9.212;2022-11-15T23:48:22;10.60;93.00
15105;DHT22;7653;48.994;9.212;2022-11-15T23:50:48;10.60;93.30
15105;DHT22;7653;48.994;9.212;2022-11-15T23:53:15;10.40;93.20
15105;DHT22;7653;48.994;9.212;2022-11-15T23:55:41;10.40;94.70
15105;DHT22;7653;48.994;9.212;2022-11-15T23:58:07;10.50;95.20
